Time;durP1;ratioP1;P1;durP2;ratioP2;P2;SDS_P1;SDS_P2;PMS_P1;PMS_P2;Temp;Humidity;BMP_temperature;BMP_pressure;BME280_temperature;BME280_humidity;BME280_pressure;Samples;Min_cycle;Max_cycle;Signal;HPM_P1;HPM_P2
2023/05/23 00:02:17;;;;;;;12.30;7.32;;;;;;;21.30;56.04;100490.88;5040669;28;20045;-81
2023/05/23 00:05:11;;;;;;;8.82;6.28;;;;;;;21.67;56.82;100484.97;5040496;28;20048;-82
2023/05/23 00:08:06;;;;;;;15.10;8.13;;;;;;;21.37;56.07;100481.00;5040235;28;20511;-81
2023/05/23 00:11:00;;;;;;;15.70;7.20;;;;;;;21.38;56.43;100482.59;5040258;28;20048;-83
2023/05/23 00:13:50;;;;;;;12.10;7.60;;;;;;;21.17;56.67;100489.69;5040322;28;20044;-82
2023/05/23 00:16:46;;;;;;;15.30;8.98;;;;;;;21.27;56.20;100488.13;5040322;28;20060;-82
2023/05/23 00:19:40;;;;;;;17.60;8.38;;;;;;;21.23;55.98;100495.63;5036685;28;20048;-82
2023/05/23 00:22:32;;;;;;;14.20;9.55;;;;;;;20.46;58.71;100492.19;5040089;28;20052;-82
2023/05/23 00:25:26;;;;;;;13.73;9.27;;;;;;;20.78;57.85;100484.00;5039952;28;20044;-82
2023/05/23 00:28:21;;;;;;;15.73;10.45;;;;;;;20.88;57.74;100483.25;5040092;28;20052;-82
2023/05/23 00:31:16;;;;;;;11.90;9.50;;;;;;;20.79;57.85;100476.50;5039871;28;20033;-82
2023/05/23 00:34:11;;;;;;;15.52;10.40;;;;;;;20.69;58.32;100486.34;5033223;28;20512;-82
2023/05/23 00:37:03;;;;;;;13.02;8.73;;;;;;;20.67;59.02;100482.41;5024908;28;20037;-82
2023/05/23 00:39:57;;;;;;;12.77;9.30;;;;;;;20.37;59.52;100483.44;5034689;28;20045;-84
2023/05/23 00:42:50;;;;;;;12.45;9.77;;;;;;;20.61;58.84;100478.41;5039857;28;20041;-82
2023/05/23 00:45:44;;;;;;;19.85;10.45;;;;;;;20.62;58.81;100486.31;5038667;28;20041;-81
2023/05/23 00:48:37;;;;;;;20.25;9.63;;;;;;;20.75;58.32;100484.00;5023670;28;20057;-79
2023/05/23 00:51:31;;;;;;;13.50;9.70;;;;;;;20.57;58.63;100491.44;5038158;28;20048;-81
2023/05/23 00:54:29;;;;;;;16.42;9.25;;;;;;;20.46;58.70;100486.66;5034479;28;20044;-81
2023/05/23 00:57:21;;;;;;;15.70;8.95;;;;;;;20.59;58.62;100492.63;5038951;28;20045;-82
2023/05/23 01:00:18;;;;;;;14.65;9.65;;;;;;;20.64;58.32;100483.94;5032038;28;20064;-82
2023/05/23 01:03:15;;;;;;;22.02;9.38;;;;;;;20.40;59.24;100471.63;5038672;28;20132;-80
2023/05/23 01:06:07;;;;;;;17.30;10.52;;;;;;;20.62;58.55;100488.31;5024140;28;20053;-82
2023/05/23 01:09:02;;;;;;;13.65;9.73;;;;;;;20.46;59.19;100481.13;5033258;28;20500;-82
2023/05/23 01:12:29;;;;;;;16.90;10.65;;;;;;;20.53;58.89;100483.13;5037997;28;20067;-84
2023/05/23 01:15:22;;;;;;;23.05;10.65;;;;;;;20.70;58.27;100478.84;5019533;28;20049;-81
2023/05/23 01:18:23;;;;;;;16.33;9.80;;;;;;;20.30;59.33;100480.63;5024297;28;20041;-82
2023/05/23 01:21:19;;;;;;;15.15;9.48;;;;;;;20.72;58.31;100479.25;5026331;28;20048;-85
2023/05/23 01:24:27;;;;;;;11.05;9.02;;;;;;;20.77;57.70;100482.44;5038493;28;20037;-85
2023/05/23 01:27:39;;;;;;;24.10;10.25;;;;;;;20.61;58.41;100479.22;5034753;28;20041;-85
2023/05/23 01:30:36;;;;;;;19.65;10.68;;;;;;;19.70;61.41;100484.94;5017699;28;20042;-83
2023/05/23 01:33:33;;;;;;;17.88;11.02;;;;;;;18.78;65.64;100479.31;5038416;28;20042;-84
2023/05/23 01:36:27;;;;;;;14.18;11.05;;;;;;;19.11;64.57;100475.72;5039138;28;20493;-84
2023/05/23 01:39:22;;;;;;;22.15;12.05;;;;;;;19.31;63.63;100479.84;5035468;28;20041;-83
2023/05/23 01:42:14;;;;;;;19.85;13.23;;;;;;;19.61;62.50;100476.97;5039067;28;20041;-83
2023/05/23 01:45:10;;;;;;;19.25;12.93;;;;;;;19.40;63.68;100485.06;5032357;28;20700;-83
2023/05/23 01:48:06;;;;;;;14.75;11.80;;;;;;;19.31;64.48;100479.84;5038181;28;20400;-83
2023/05/23 01:51:01;;;;;;;16.52;13.38;;;;;;;19.72;62.74;100477.84;5037517;28;20037;-83
2023/05/23 01:53:55;;;;;;;20.48;13.52;;;;;;;19.91;62.11;100474.06;5036507;28;20034;-82
2023/05/23 01:56:52;;;;;;;19.08;13.15;;;;;;;19.97;61.92;100472.50;5039925;28;20049;-82
2023/05/23 01:59:46;;;;;;;18.52;12.73;;;;;;;19.98;61.69;100471.34;5038844;28;20037;-86
2023/05/23 02:02:41;;;;;;;19.17;11.95;;;;;;;19.94;61.81;100474.09;5043844;28;20571;-82
2023/05/23 02:05:35;;;;;;;20.70;12.43;;;;;;;20.01;61.30;100476.13;5043692;28;20037;-83
2023/05/23 02:08:30;;;;;;;16.48;11.68;;;;;;;19.80;61.63;100473.19;5044180;28;20495;-84
2023/05/23 02:11:24;;;;;;;17.58;12.32;;;;;;;19.89;61.61;100477.22;5047324;28;20041;-83
2023/05/23 02:14:19;;;;;;;14.65;10.70;;;;;;;20.12;61.01;100478.91;5061417;28;20040;-82
2023/05/23 02:17:13;;;;;;;19.35;12.45;;;;;;;19.96;61.03;100473.72;5037929;28;20045;-82
2023/05/23 02:20:09;;;;;;;22.23;11.35;;;;;;;19.48;61.81;100472.94;5038505;28;20431;-83
2023/05/23 02:23:01;;;;;;;19.85;11.73;;;;;;;19.22;63.19;100471.09;5047162;28;20044;-83
2023/05/23 02:25:56;;;;;;;24.55;13.30;;;;;;;19.53;62.87;100470.63;5046252;28;20041;-83
2023/05/23 02:28:50;;;;;;;16.17;11.23;;;;;;;19.56;62.31;100463.53;5046000;28;20037;-83
2023/05/23 02:31:45;;;;;;;23.70;11.93;;;;;;;19.55;62.36;100462.78;5046683;28;20041;-81
2023/05/23 02:34:39;;;;;;;15.75;11.45;;;;;;;19.30;62.83;100472.72;5037949;28;20034;-83
2023/05/23 02:37:33;;;;;;;15.30;10.75;;;;;;;19.61;61.89;100475.00;5044874;28;20053;-83
2023/05/23 02:40:24;;;;;;;19.80;12.20;;;;;;;19.32;62.53;100464.88;5041498;28;20032;-84
2023/05/23 02:43:17;;;;;;;15.02;11.35;;;;;;;19.30;62.90;100463.69;5046143;28;20041;-83
2023/05/23 02:46:12;;;;;;;18.67;11.63;;;;;;;19.10;63.16;100466.63;5045826;28;20036;-83
2023/05/23 02:49:07;;;;;;;20.38;12.15;;;;;;;19.04;63.15;100468.19;5059922;28;20037;-83
2023/05/23 02:52:01;;;;;;;15.82;11.32;;;;;;;19.11;63.92;100470.19;5044379;28;20037;-78
2023/05/23 02:54:55;;;;;;;22.33;12.73;;;;;;;19.02;64.29;100473.25;5042394;28;20033;-81
2023/05/23 02:57:51;;;;;;;22.23;12.32;;;;;;;19.09;63.71;100472.56;5040111;28;20037;-79
2023/05/23 03:00:46;;;;;;;18.25;11.63;;;;;;;19.03;63.71;100468.53;5039995;28;20045;-78
2023/05/23 03:03:40;;;;;;;25.23;11.70;;;;;;;19.02;64.07;100470.50;5042616;28;20037;-78
2023/05/23 03:06:35;;;;;;;21.60;12.77;;;;;;;19.22;64.33;100468.34;5044257;28;20040;-79
2023/05/23 03:09:29;;;;;;;21.35;11.00;;;;;;;19.14;64.09;100461.19;5042131;28;20044;-78
2023/05/23 03:12:21;;;;;;;21.13;10.60;;;;;;;19.57;63.43;100459.63;5055736;28;20427;-77
2023/05/23 03:15:13;;;;;;;23.95;12.25;;;;;;;19.38;62.38;100457.84;5047156;28;20033;-84
2023/05/23 03:18:08;;;;;;;20.58;11.32;;;;;;;19.36;62.91;100459.41;5046868;28;20044;-83
2023/05/23 03:21:02;;;;;;;20.30;10.43;;;;;;;19.86;63.42;100455.88;5046326;28;20041;-84
2023/05/23 03:23:57;;;;;;;23.15;10.50;;;;;;;19.71;61.25;100458.94;5047112;28;20041;-84
2023/05/23 03:26:52;;;;;;;24.42;11.02;;;;;;;19.60;61.65;100459.66;5045312;28;20033;-83
2023/05/23 03:29:46;;;;;;;15.65;9.50;;;;;;;19.83;61.25;100455.88;5042875;28;20037;-84
2023/05/23 03:32:38;;;;;;;12.38;9.02;;;;;;;20.22;61.30;100462.41;5042905;28;20041;-85
2023/05/23 03:35:33;;;;;;;19.60;9.40;;;;;;;19.69;59.75;100464.84;5046780;28;20056;-85
2023/05/23 03:38:27;;;;;;;16.42;10.40;;;;;;;19.24;62.19;100471.53;5050630;28;20044;-85
2023/05/23 03:41:19;;;;;;;18.73;9.80;;;;;;;19.33;62.34;100476.72;5047132;28;20430;-86
2023/05/23 03:44:14;;;;;;;13.27;9.00;;;;;;;19.50;63.38;100482.44;5046411;28;20052;-83
2023/05/23 03:47:33;;;;;;;15.45;9.38;;;;;;;19.94;62.65;100479.59;5047628;28;20519;-85
2023/05/23 03:50:28;;;;;;;12.73;7.78;;;;;;;20.30;61.31;100483.38;5021140;28;20045;-85
2023/05/23 03:53:23;;;;;;;12.30;8.10;;;;;;;20.63;60.07;100476.03;5040827;28;20055;-84
2023/05/23 03:56:17;;;;;;;13.60;7.93;;;;;;;20.82;59.21;100484.03;5046230;28;20033;-84
2023/05/23 03:59:12;;;;;;;14.38;7.75;;;;;;;20.89;58.81;100486.81;5043326;28;20507;-83
2023/05/23 04:02:06;;;;;;;12.70;7.25;;;;;;;21.05;58.44;100486.44;5039966;28;20530;-84
2023/05/23 04:05:01;;;;;;;9.00;7.13;;;;;;;21.11;58.13;100482.91;5046223;28;20048;-84
2023/05/23 04:07:56;;;;;;;15.32;7.53;;;;;;;21.18;57.36;100484.94;5041751;28;20040;-84
2023/05/23 04:10:51;;;;;;;9.48;7.45;;;;;;;21.26;57.71;100481.00;5039012;28;20781;-85
2023/05/23 04:13:43;;;;;;;10.43;6.72;;;;;;;21.25;57.00;100485.72;5046079;28;20040;-86
2023/05/23 04:16:37;;;;;;;14.18;6.90;;;;;;;21.29;57.04;100478.22;5055064;28;20033;-83
2023/05/23 04:19:32;;;;;;;11.25;7.40;;;;;;;21.32;56.50;100483.00;5043058;28;20040;-86
2023/05/23 04:22:26;;;;;;;10.20;5.97;;;;;;;21.31;56.57;100481.41;5046406;28;20037;-83
2023/05/23 04:25:21;;;;;;;14.30;7.00;;;;;;;20.72;54.49;100485.56;5038309;28;20040;-79
2023/05/23 04:28:29;;;;;;;15.70;6.78;;;;;;;20.67;57.29;100482.41;5047387;28;20400;-79
2023/05/23 04:31:23;;;;;;;14.13;5.63;;;;;;;20.42;57.87;100472.00;5036970;28;20029;-76
2023/05/23 04:34:18;;;;;;;14.68;5.60;;;;;;;20.36;57.81;100484.63;5044373;28;20041;-79
2023/05/23 04:37:12;;;;;;;10.05;5.65;;;;;;;20.59;56.28;100480.78;5048915;28;20427;-78
2023/05/23 04:40:07;;;;;;;9.82;4.93;;;;;;;20.54;56.30;100481.13;5039285;28;20036;-78
2023/05/23 04:43:26;;;;;;;9.82;5.70;;;;;;;19.55;58.73;100481.28;5053915;28;20400;-80
2023/05/23 04:46:25;;;;;;;6.75;5.05;;;;;;;19.06;60.15;100489.81;5037511;28;20044;-77
2023/05/23 04:49:27;;;;;;;14.85;6.75;;;;;;;18.75;63.65;100493.81;5039860;28;20044;-78
2023/05/23 04:52:19;;;;;;;11.82;6.80;;;;;;;18.23;66.08;100487.25;5034303;28;20044;-79
2023/05/23 04:55:09;;;;;;;13.45;9.50;;;;;;;17.93;68.31;100481.66;5040502;28;20033;-80
2023/05/23 04:58:01;;;;;;;14.43;10.02;;;;;;;17.99;69.54;100492.34;5046286;28;20451;-82
2023/05/23 05:00:56;;;;;;;19.60;10.65;;;;;;;18.04;68.76;100492.84;5039438;28;20041;-77
2023/05/23 05:03:51;;;;;;;26.00;10.65;;;;;;;18.16;68.98;100486.31;5052233;28;20037;-79
2023/05/23 05:06:45;;;;;;;15.18;10.90;;;;;;;18.56;67.10;100483.75;5037558;28;20041;-79
2023/05/23 05:09:37;;;;;;;29.73;12.20;;;;;;;18.41;67.18;100487.47;5042954;28;20037;-78
2023/05/23 05:12:33;;;;;;;17.88;10.00;;;;;;;18.89;66.09;100484.94;5043529;28;20045;-79
2023/05/23 05:15:28;;;;;;;16.85;9.30;;;;;;;19.40;64.61;100487.81;5049411;28;20411;-80
2023/05/23 05:18:22;;;;;;;14.90;9.82;;;;;;;19.70;63.60;100488.50;5041194;28;20044;-79
2023/05/23 05:21:18;;;;;;;16.33;10.18;;;;;;;19.31;64.15;100477.09;5036858;28;20045;-79
2023/05/23 05:24:12;;;;;;;38.45;9.85;;;;;;;19.67;64.51;100483.72;5051681;28;20033;-79
2023/05/23 05:27:08;;;;;;;22.58;10.25;;;;;;;19.73;62.84;100486.94;5037402;28;20048;-80
2023/05/23 05:30:06;;;;;;;17.98;9.48;;;;;;;19.85;63.13;100484.69;5037455;28;20037;-78
2023/05/23 05:33:02;;;;;;;19.35;9.68;;;;;;;20.12;61.39;100485.22;5034553;28;20523;-79
2023/05/23 05:35:58;;;;;;;18.48;8.93;;;;;;;20.42;60.38;100488.59;5036302;28;20431;-81
2023/05/23 05:38:52;;;;;;;14.10;8.25;;;;;;;20.65;59.69;100482.78;5037115;28;20503;-81
2023/05/23 05:41:47;;;;;;;12.95;8.30;;;;;;;20.67;58.67;100485.94;5019534;28;20041;-81
2023/05/23 05:44:41;;;;;;;20.92;9.52;;;;;;;20.77;58.43;100478.88;5032211;28;20415;-80
2023/05/23 05:47:36;;;;;;;19.90;9.32;;;;;;;20.53;58.94;100482.31;5043288;28;20040;-80
2023/05/23 05:50:31;;;;;;;16.60;8.05;;;;;;;20.54;59.75;100470.09;5041123;28;20033;-79
2023/05/23 05:53:26;;;;;;;13.57;10.85;;;;;;;20.71;62.55;100477.66;5042656;28;20044;-80
2023/05/23 05:56:21;;;;;;;19.10;9.38;;;;;;;20.82;61.27;100479.28;5039332;28;20029;-78
2023/05/23 05:59:16;;;;;;;20.25;10.73;;;;;;;21.16;60.46;100476.25;5031235;28;20038;-79
2023/05/23 06:02:10;;;;;;;21.45;9.23;;;;;;;21.29;59.83;100481.00;5036835;28;20037;-78
2023/05/23 06:05:06;;;;;;;23.92;11.25;;;;;;;21.24;60.59;100473.09;5041453;28;20429;-79
2023/05/23 06:08:01;;;;;;;20.90;10.90;;;;;;;21.14;62.70;100476.63;5055758;28;20044;-78
2023/05/23 06:10:55;;;;;;;20.65;11.75;;;;;;;21.18;62.38;100484.94;5050547;28;20503;-79
2023/05/23 06:13:50;;;;;;;16.50;10.13;;;;;;;21.29;61.78;100486.53;5045944;28;20036;-79
2023/05/23 06:16:44;;;;;;;20.92;11.35;;;;;;;21.44;61.86;100492.06;5035450;28;20033;-80
2023/05/23 06:19:37;;;;;;;;;;;;;;;21.72;61.00;100481.00;5050524;28;20037;-79
2023/05/23 06:22:31;;;;;;;24.45;10.77;;;;;;;21.88;60.01;100495.25;5039595;28;20295;-77
2023/05/23 06:25:26;;;;;;;22.20;12.35;;;;;;;22.01;59.84;100493.66;5051837;28;20029;-79
2023/05/23 06:28:21;;;;;;;18.73;12.70;;;;;;;21.86;59.90;100486.53;5038648;28;20036;-79
2023/05/23 06:31:16;;;;;;;29.42;11.23;;;;;;;21.91;60.61;100491.66;5043088;28;20041;-78
2023/05/23 06:34:08;;;;;;;22.75;11.55;;;;;;;21.95;59.83;100489.72;5051021;28;20037;-78
2023/05/23 06:37:04;;;;;;;20.60;12.18;;;;;;;22.25;59.22;100502.34;5059789;28;20515;-77
2023/05/23 06:39:59;;;;;;;18.45;10.93;;;;;;;22.40;58.76;100492.81;5036950;28;20033;-78
2023/05/23 06:42:54;;;;;;;21.30;11.57;;;;;;;22.29;58.73;100503.13;5055853;28;20037;-77
2023/05/23 06:46:05;;;;;;;28.35;12.38;;;;;;;22.42;58.52;100502.28;5052055;28;20428;-77
2023/05/23 06:48:59;;;;;;;23.60;11.07;;;;;;;22.33;58.74;100501.13;5055138;28;20033;-77
2023/05/23 06:51:54;;;;;;;20.30;10.95;;;;;;;22.07;57.58;100491.28;5038123;28;20033;-78
2023/05/23 06:54:48;;;;;;;26.25;12.23;;;;;;;22.13;56.11;100495.25;5055554;28;20041;-78
2023/05/23 06:57:41;;;;;;;19.25;10.43;;;;;;;22.07;55.48;100492.06;5046552;28;20060;-79
2023/05/23 07:00:35;;;;;;;19.05;10.85;;;;;;;22.04;55.57;100497.63;5042402;28;20044;-79
2023/05/23 07:03:43;;;;;;;16.27;11.73;;;;;;;22.12;57.11;100494.44;5041316;28;20399;-78
2023/05/23 07:06:35;;;;;;;65.45;12.57;;;;;;;22.36;56.13;100492.78;5043470;28;20407;-78
2023/05/23 07:09:30;;;;;;;16.20;8.80;;;;;;;22.79;54.58;100485.16;5033111;28;20037;-79
2023/05/23 07:12:32;;;;;;;16.83;9.05;;;;;;;22.96;54.13;100487.03;5043337;28;20060;-79
2023/05/23 07:15:27;;;;;;;16.92;9.93;;;;;;;22.64;52.89;100488.34;5039869;28;20029;-77
2023/05/23 07:18:27;;;;;;;31.30;11.20;;;;;;;22.63;54.41;100484.00;5040087;28;20045;-78
2023/05/23 07:21:22;;;;;;;22.15;11.20;;;;;;;22.70;56.21;100487.53;5043768;28;20492;-77
2023/05/23 07:24:17;;;;;;;14.05;8.80;;;;;;;22.98;55.10;100486.63;5053632;28;20037;-77
2023/05/23 07:27:12;;;;;;;14.30;9.93;;;;;;;23.39;54.64;100483.97;5053118;28;20037;-78
2023/05/23 07:30:06;;;;;;;16.92;10.90;;;;;;;23.56;54.44;100485.88;5040113;28;20064;-76
2023/05/23 07:33:01;;;;;;;13.18;9.55;;;;;;;23.63;53.97;100473.91;5031446;28;20041;-76
2023/05/23 07:35:58;;;;;;;18.48;10.60;;;;;;;23.64;53.51;100476.28;5046824;28;20040;-78
2023/05/23 07:38:53;;;;;;;27.63;10.30;;;;;;;23.63;53.61;100473.91;5058174;28;20408;-77
2023/05/23 07:41:43;;;;;;;;;;;;;;;23.66;53.10;100478.66;5041220;28;20041;-78
2023/05/23 07:44:37;;;;;;;19.77;10.75;;;;;;;23.67;51.54;100478.22;5052377;28;19913;-78
2023/05/23 07:47:30;;;;;;;15.45;9.77;;;;;;;23.74;52.03;100474.59;5033547;28;20045;-78
2023/05/23 07:50:24;;;;;;;17.85;9.55;;;;;;;23.54;52.42;100481.91;5046552;28;20090;-77
2023/05/23 07:53:19;;;;;;;12.77;9.18;;;;;;;23.26;53.38;100475.34;5038918;28;21510;-77
2023/05/23 07:56:13;;;;;;;12.38;7.78;;;;;;;23.19;51.71;100466.28;5041290;28;20033;-79
2023/05/23 07:59:08;;;;;;;15.15;7.53;;;;;;;23.34;50.63;100462.22;5023521;28;20045;-81
2023/05/23 08:02:02;;;;;;;10.88;8.05;;;;;;;23.36;51.00;100470.94;5082202;22;20049;-80
2023/05/23 08:04:57;;;;;;;17.02;7.93;;;;;;;23.24;50.79;100468.63;5040703;28;20047;-80
2023/05/23 08:07:52;;;;;;;14.07;7.53;;;;;;;23.34;51.78;100464.97;5043213;28;20412;-80
2023/05/23 08:10:46;;;;;;;11.48;7.15;;;;;;;23.22;51.74;100469.03;5041443;28;20511;-80
2023/05/23 08:13:46;;;;;;;13.45;6.38;;;;;;;23.28;52.79;100469.38;5033435;28;20410;-80
2023/05/23 08:16:57;;;;;;;14.32;9.88;;;;;;;23.43;52.57;100471.66;5027353;28;20049;-80
2023/05/23 08:19:51;;;;;;;17.58;9.70;;;;;;;23.83;51.59;100472.13;5033244;28;20556;-79
2023/05/23 08:22:46;;;;;;;12.85;8.18;;;;;;;23.75;52.03;100470.63;5020881;28;20048;-80
2023/05/23 08:25:38;;;;;;;15.40;10.00;;;;;;;23.90;51.18;100472.06;5021818;28;20045;-80
2023/05/23 08:28:33;;;;;;;19.15;10.93;;;;;;;24.33;49.66;100477.22;5025217;28;20408;-80
2023/05/23 08:31:29;;;;;;;19.77;10.88;;;;;;;24.26;50.92;100475.31;5022646;28;20041;-80
2023/05/23 08:34:23;;;;;;;13.60;9.35;;;;;;;24.13;51.34;100471.44;5015564;28;20412;-80
2023/05/23 08:37:18;;;;;;;14.18;8.50;;;;;;;23.77;51.60;100468.25;5011840;28;20030;-80
2023/05/23 08:40:15;;;;;;;19.50;10.77;;;;;;;24.44;50.80;100478.66;5025952;28;20420;-80
2023/05/23 08:43:11;;;;;;;17.30;8.65;;;;;;;23.95;51.17;100479.16;5033517;28;20505;-80
2023/05/23 08:46:04;;;;;;;15.43;10.38;;;;;;;23.96;52.64;100464.09;5036036;28;20057;-79
2023/05/23 08:49:00;;;;;;;25.70;10.63;;;;;;;24.12;50.47;100470.66;5033697;28;20061;-79
2023/05/23 08:51:58;;;;;;;21.98;11.20;;;;;;;24.01;52.01;100467.19;5050448;28;20041;-79
2023/05/23 08:54:52;;;;;;;29.63;11.75;;;;;;;24.40;50.55;100472.34;5037683;28;20033;-79
2023/05/23 08:57:47;;;;;;;22.15;12.45;;;;;;;24.20;50.70;100468.63;5004070;28;20033;-79
2023/05/23 09:00:56;;;;;;;27.67;12.48;;;;;;;24.03;51.81;100464.00;5001129;28;20042;-79
2023/05/23 09:03:50;;;;;;;19.45;10.93;;;;;;;24.13;50.88;100469.44;5029519;28;20041;-79
2023/05/23 09:06:39;;;;;;;;;;;;;;;24.48;49.69;100471.06;5014344;28;20033;-79
2023/05/23 09:09:31;;;;;;;20.15;9.25;;;;;;;23.75;51.84;100462.28;5019780;28;19912;-79
2023/05/23 09:12:26;;;;;;;17.65;10.55;;;;;;;23.94;51.88;100449.81;5020918;28;20042;-79
2023/05/23 09:15:18;;;;;;;15.38;9.55;;;;;;;24.03;52.11;100469.56;5021119;28;20041;-79
2023/05/23 09:18:13;;;;;;;21.20;11.80;;;;;;;23.82;52.42;100465.78;5018777;28;20044;-79
2023/05/23 09:21:09;;;;;;;18.13;11.70;;;;;;;24.37;51.16;100461.28;5037156;28;20041;-79
2023/05/23 09:24:04;;;;;;;15.90;8.95;;;;;;;23.74;52.22;100469.84;5020045;28;20037;-79
2023/05/23 09:26:59;;;;;;;16.90;10.73;;;;;;;23.68;52.01;100468.69;5037336;28;20052;-79
2023/05/23 09:29:54;;;;;;;12.70;8.93;;;;;;;23.98;52.36;100461.66;5020805;28;20037;-79
2023/05/23 09:33:02;;;;;;;16.77;10.68;;;;;;;24.71;50.10;100459.25;5018378;28;20045;-80
2023/05/23 09:35:51;;;;;;;15.70;11.32;;;;;;;25.21;49.44;100464.94;5021278;28;20030;-79
2023/05/23 09:38:48;;;;;;;14.73;7.95;;;;;;;24.21;50.65;100462.66;5019510;28;20045;-79
2023/05/23 09:41:40;;;;;;;14.38;10.25;;;;;;;24.51;50.48;100455.53;5036142;28;20049;-79
2023/05/23 09:44:40;;;;;;;14.68;10.13;;;;;;;24.76;49.89;100455.22;5035532;28;20041;-79
2023/05/23 09:47:34;;;;;;;15.88;9.38;;;;;;;24.28;50.88;100454.22;5009275;28;20038;-79
2023/05/23 09:50:26;;;;;;;16.33;9.82;;;;;;;24.47;49.67;100452.03;5030364;28;20037;-79
2023/05/23 09:53:21;;;;;;;17.35;8.90;;;;;;;24.34;49.94;100450.97;5021231;28;20400;-79
2023/05/23 09:56:16;;;;;;;8.73;7.75;;;;;;;24.16;50.58;100451.97;5054299;28;20037;-79
2023/05/23 09:59:14;;;;;;;12.10;8.95;;;;;;;24.50;49.60;100453.97;5055479;28;20048;-79
2023/05/23 10:02:12;;;;;;;23.52;9.32;;;;;;;24.74;48.92;100450.06;5013193;28;20042;-79
2023/05/23 10:05:07;;;;;;;14.25;10.20;;;;;;;24.85;48.00;100447.13;5016663;28;20045;-79
2023/05/23 10:08:06;;;;;;;14.20;8.25;;;;;;;24.34;50.56;100446.22;5025004;28;20054;-79
2023/05/23 10:11:20;;;;;;;18.80;10.70;;;;;;;25.21;47.32;100444.66;5036717;28;20509;-79
2023/05/23 10:14:12;;;;;;;13.48;8.25;;;;;;;25.46;43.64;100445.84;5034020;28;20050;-79
2023/05/23 10:17:23;;;;;;;15.25;8.30;;;;;;;25.28;44.94;100441.78;5037592;28;20044;-79
2023/05/23 10:20:22;;;;;;;13.88;6.97;;;;;;;25.96;40.13;100442.97;5032392;28;20049;-80
2023/05/23 10:23:16;;;;;;;13.30;7.13;;;;;;;25.77;43.01;100442.94;5030812;28;20113;-80
2023/05/23 10:26:09;;;;;;;10.25;6.95;;;;;;;25.03;44.88;100448.50;5029536;28;20068;-79
2023/05/23 10:29:04;;;;;;;9.18;6.00;;;;;;;24.84;44.96;100445.59;5035238;28;20117;-80
2023/05/23 10:31:56;;;;;;;;;;;;;;;24.74;46.60;100447.28;5028722;28;20048;-79
2023/05/23 10:34:56;;;;;;;14.95;6.10;;;;;;;25.00;44.19;100443.78;5042172;28;19920;-79
2023/05/23 10:38:07;;;;;;;11.07;6.85;;;;;;;25.12;44.67;100440.41;5036463;28;20029;-80
2023/05/23 10:41:12;;;;;;;16.90;8.10;;;;;;;25.13;45.53;100442.00;5040760;28;20044;-79
2023/05/23 10:44:29;;;;;;;7.55;6.45;;;;;;;25.56;43.83;100435.75;5035549;28;20041;-79
2023/05/23 10:47:33;;;;;;;8.00;5.72;;;;;;;24.67;46.88;100431.50;5036448;28;20040;-79
2023/05/23 10:50:40;;;;;;;15.65;5.93;;;;;;;24.50;47.74;100428.94;5040847;28;20048;-80
2023/05/23 10:53:35;;;;;;;6.47;4.85;;;;;;;24.46;46.57;100426.22;5037642;28;20037;-80
2023/05/23 10:56:35;;;;;;;9.05;5.85;;;;;;;25.79;43.14;100432.97;5040820;28;20044;-79
2023/05/23 10:59:31;;;;;;;7.82;5.68;;;;;;;25.49;42.58;100424.72;5038767;28;20056;-79
2023/05/23 11:02:25;;;;;;;9.77;5.50;;;;;;;25.36;44.91;100415.38;5036122;28;20044;-79
2023/05/23 11:05:30;;;;;;;17.00;6.35;;;;;;;25.67;42.38;100419.66;5037611;28;20044;-79
2023/05/23 11:08:28;;;;;;;11.38;5.53;;;;;;;26.14;40.91;100414.00;5037647;28;20042;-80
2023/05/23 11:11:25;;;;;;;8.68;5.50;;;;;;;25.27;44.12;100407.56;5040548;28;20048;-80
2023/05/23 11:14:19;;;;;;;9.10;5.47;;;;;;;25.36;44.70;100416.16;5038173;28;20504;-79
2023/05/23 11:17:30;;;;;;;9.90;5.47;;;;;;;24.99;45.42;100416.38;5035730;28;20514;-80
2023/05/23 11:20:26;;;;;;;16.80;5.32;;;;;;;25.92;41.33;100408.84;5038254;28;20465;-80
2023/05/23 11:23:20;;;;;;;5.68;4.65;;;;;;;25.55;43.00;100404.31;5034897;28;20044;-80
2023/05/23 11:26:32;;;;;;;13.57;4.97;;;;;;;25.47;40.79;100405.66;5044071;28;20416;-80
2023/05/23 11:29:27;;;;;;;10.75;4.25;;;;;;;26.37;39.47;100409.16;5044027;28;20037;-79
2023/05/23 11:32:24;;;;;;;19.73;6.45;;;;;;;26.71;39.27;100402.47;5034888;28;20041;-79
2023/05/23 11:35:19;;;;;;;8.93;4.30;;;;;;;26.65;38.13;100404.19;5034880;28;20040;-78
2023/05/23 11:38:11;;;;;;;6.75;4.45;;;;;;;26.69;40.45;100400.09;5042357;28;20041;-79
2023/05/23 11:41:05;;;;;;;7.38;4.20;;;;;;;25.83;42.14;100405.81;5032914;28;20436;-79
2023/05/23 11:44:00;;;;;;;9.90;4.40;;;;;;;25.30;42.84;100392.81;5016845;28;20044;-78
2023/05/23 11:47:06;;;;;;;12.73;5.07;;;;;;;25.22;43.44;100399.72;5030362;28;20040;-79
2023/05/23 11:49:56;;;;;;;6.90;4.32;;;;;;;25.49;41.24;100396.88;5044271;28;20036;-78
2023/05/23 11:52:50;;;;;;;8.25;4.13;;;;;;;25.32;43.99;100403.53;5056934;28;20046;-78
2023/05/23 11:55:49;;;;;;;10.52;4.82;;;;;;;25.39;43.58;100398.63;5058533;28;20052;-78
2023/05/23 11:58:41;;;;;;;9.10;4.45;;;;;;;25.46;41.33;100394.91;5056238;28;20048;-79
2023/05/23 12:01:33;;;;;;;7.28;4.53;;;;;;;25.15;44.13;100399.81;5059479;28;20063;-79
2023/05/23 12:04:28;;;;;;;6.63;4.03;;;;;;;25.22;43.06;100399.72;5057087;28;20044;-78
2023/05/23 12:07:26;;;;;;;6.53;3.30;;;;;;;25.20;42.49;100392.97;5054598;28;20056;-79
2023/05/23 12:10:21;;;;;;;12.25;4.70;;;;;;;26.06;36.75;100396.59;5038149;28;20052;-78
2023/05/23 12:13:15;;;;;;;6.57;4.18;;;;;;;26.34;37.63;100396.06;5034451;28;20041;-78
2023/05/23 12:16:09;;;;;;;10.77;5.10;;;;;;;26.01;40.58;100388.75;5026771;28;20033;-79
2023/05/23 12:19:05;;;;;;;5.78;4.18;;;;;;;25.37;42.67;100392.69;5028334;28;20148;-78
2023/05/23 12:22:06;;;;;;;7.72;4.45;;;;;;;24.85;44.62;100397.06;5032661;28;20041;-79
2023/05/23 12:25:01;;;;;;;11.52;6.82;;;;;;;25.76;40.91;100391.22;5028957;28;20069;-78
2023/05/23 12:27:58;;;;;;;14.98;6.72;;;;;;;25.78;41.38;100386.03;5035291;28;20531;-78
2023/05/23 12:30:53;;;;;;;15.85;7.07;;;;;;;25.76;40.33;100385.66;5037538;28;20408;-78
2023/05/23 12:33:46;;;;;;;13.60;7.28;;;;;;;26.31;39.64;100380.19;5035465;28;20044;-78
2023/05/23 12:36:39;;;;;;;11.27;6.95;;;;;;;25.68;42.35;100370.31;5038832;28;20523;-79
2023/05/23 12:39:32;;;;;;;10.93;7.00;;;;;;;25.47;42.03;100368.66;5036204;28;20038;-79
2023/05/23 12:42:26;;;;;;;8.45;5.50;;;;;;;25.02;44.05;100363.47;5034031;28;20041;-79
2023/05/23 12:45:21;;;;;;;9.93;6.68;;;;;;;25.02;43.99;100363.47;5037807;28;20052;-78
2023/05/23 12:48:15;;;;;;;14.90;7.78;;;;;;;25.47;43.25;100363.09;5040420;28;20044;-78
2023/05/23 12:51:10;;;;;;;9.90;6.97;;;;;;;25.37;43.17;100362.06;5039389;28;20037;-78
2023/05/23 12:54:04;;;;;;;8.45;6.68;;;;;;;25.33;43.57;100353.00;5032430;28;20531;-79
2023/05/23 12:56:59;;;;;;;10.05;7.32;;;;;;;25.14;44.16;100359.31;5030605;28;20041;-78
2023/05/23 12:59:54;;;;;;;8.13;6.22;;;;;;;25.01;44.06;100353.53;5031793;28;20053;-79
2023/05/23 13:02:48;;;;;;;15.73;7.40;;;;;;;25.14;44.25;100362.09;5032868;28;20043;-79
2023/05/23 13:05:43;;;;;;;8.82;6.90;;;;;;;24.77;45.41;100354.69;5041194;28;20037;-78
2023/05/23 13:08:35;;;;;;;9.85;5.97;;;;;;;24.80;45.54;100355.81;5052749;28;20095;-79
2023/05/23 13:11:30;;;;;;;10.02;5.90;;;;;;;24.67;46.07;100352.84;5040589;28;20044;-80
2023/05/23 13:14:22;;;;;;;10.40;6.18;;;;;;;24.43;46.58;100354.75;5054700;28;20435;-79
2023/05/23 13:17:16;;;;;;;14.82;5.63;;;;;;;24.75;44.96;100354.31;5025322;28;20040;-78
2023/05/23 13:20:13;;;;;;;14.00;6.20;;;;;;;24.62;46.17;100353.31;5049977;28;20120;-79
2023/05/23 13:23:08;;;;;;;20.30;7.15;;;;;;;24.97;41.86;100350.03;5020403;28;20060;-79
2023/05/23 13:26:02;;;;;;;9.32;6.43;;;;;;;25.46;41.57;100345.59;5032083;28;20041;-79
2023/05/23 13:28:57;;;;;;;13.98;6.47;;;;;;;25.12;43.06;100351.38;5039129;28;20040;-78